Time;durP1;ratioP1;P1;durP2;ratioP2;P2;SDS_P1;SDS_P2;PMS_P1;PMS_P2;Temp;Humidity;BMP_temperature;BMP_pressure;BME280_temperature;BME280_humidity;BME280_pressure;Samples;Min_cycle;Max_cycle;Signal;HPM_P1;HPM_P2
2023/07/26 00:00:19;;;;;;;5.38;2.10;;;;;;;11.53;86.46;100716.31;4886477;29;20417;-74
2023/07/26 00:02:45;;;;;;;8.55;2.83;;;;;;;11.57;86.53;100712.78;4869762;29;20044;-73
2023/07/26 00:05:10;;;;;;;4.80;1.85;;;;;;;11.58;85.97;100717.06;4883800;29;20032;-73
2023/07/26 00:07:37;;;;;;;;;;;;;;;11.58;86.10;100722.44;4887398;29;20060;-75
2023/07/26 00:10:04;;;;;;;5.97;1.92;;;;;;;11.54;86.49;100709.88;4885115;29;19923;-75
2023/07/26 00:12:30;;;;;;;5.60;1.77;;;;;;;11.52;87.13;100714.72;4886928;29;20055;-75
2023/07/26 00:14:55;;;;;;;5.82;2.45;;;;;;;11.49;86.80;100719.53;4899761;29;20040;-73
2023/07/26 00:17:21;;;;;;;3.83;2.05;;;;;;;11.49;86.72;100714.16;4882197;29;21171;-75
2023/07/26 00:19:46;;;;;;;5.85;2.78;;;;;;;11.47;86.44;100721.69;4885297;29;20566;-74
2023/07/26 00:22:12;;;;;;;4.38;1.80;;;;;;;11.44;86.30;100711.50;4869212;29;20041;-74
2023/07/26 00:24:38;;;;;;;4.38;2.30;;;;;;;11.42;86.72;100721.72;4884478;29;20060;-75
2023/07/26 00:27:04;;;;;;;5.80;2.22;;;;;;;11.36;86.52;100722.81;4886060;29;20119;-73
2023/07/26 00:29:30;;;;;;;4.65;1.85;;;;;;;11.34;86.74;100721.50;4885603;29;20116;-75
2023/07/26 00:31:55;;;;;;;5.50;2.08;;;;;;;11.31;87.18;100727.38;4886953;29;20514;-74
2023/07/26 00:34:21;;;;;;;4.15;1.95;;;;;;;11.29;87.51;100724.19;4887341;29;20056;-74
2023/07/26 00:36:47;;;;;;;3.72;2.20;;;;;;;11.26;87.45;100724.75;4853904;29;20742;-74
2023/07/26 00:39:14;;;;;;;4.75;2.15;;;;;;;11.26;87.83;100727.44;4885449;29;20044;-75
2023/07/26 00:41:39;;;;;;;;;;;;;;;11.26;87.58;100725.53;4900660;29;20043;-75
2023/07/26 00:44:05;;;;;;;3.67;1.98;;;;;;;11.23;87.45;100731.44;4887029;29;20277;-74
2023/07/26 00:46:30;;;;;;;3.38;1.67;;;;;;;11.23;87.38;100731.44;4898964;29;20045;-76
2023/07/26 00:48:58;;;;;;;4.93;1.98;;;;;;;11.19;87.50;100736.56;4884560;29;20055;-74
2023/07/26 00:51:25;;;;;;;4.30;1.83;;;;;;;11.19;87.32;100731.19;4886395;29;20096;-75
2023/07/26 00:53:51;;;;;;;3.33;1.83;;;;;;;11.18;87.03;100734.16;4903797;29;20046;-74
2023/07/26 00:56:17;;;;;;;3.65;1.70;;;;;;;11.15;87.22;100735.50;4890835;29;20044;-74
2023/07/26 00:58:45;;;;;;;4.78;2.10;;;;;;;11.16;87.41;100731.72;4904798;29;20040;-73
2023/07/26 01:01:11;;;;;;;4.93;1.80;;;;;;;11.16;87.36;100747.81;4878997;29;20041;-74
2023/07/26 01:03:36;;;;;;;3.83;1.60;;;;;;;11.15;87.14;100740.06;4908069;29;20044;-73
2023/07/26 01:06:08;;;;;;;4.45;2.15;;;;;;;11.12;87.24;100740.59;4876309;29;20048;-74
2023/07/26 01:08:58;;;;;;;6.78;1.83;;;;;;;11.10;87.41;100740.84;4897623;29;20048;-74
2023/07/26 01:11:30;;;;;;;2.72;1.40;;;;;;;11.09;87.53;100741.94;4882099;29;20136;-75
2023/07/26 01:14:22;;;;;;;4.20;1.85;;;;;;;11.04;87.93;100749.19;4878533;29;22000;-74
2023/07/26 01:16:48;;;;;;;5.20;3.35;;;;;;;11.01;87.48;100749.75;4881581;29;20084;-74
2023/07/26 01:19:14;;;;;;;5.35;1.98;;;;;;;10.98;88.02;100745.75;4898794;29;20038;-75
2023/07/26 01:21:39;;;;;;;6.20;2.10;;;;;;;10.96;88.01;100747.88;4893562;29;20036;-74
2023/07/26 01:24:06;;;;;;;4.05;1.90;;;;;;;10.97;88.27;100749.47;4909637;29;20046;-74
2023/07/26 01:26:32;;;;;;;7.18;2.20;;;;;;;10.93;88.76;100748.44;4878262;29;20040;-73
2023/07/26 01:28:57;;;;;;;5.50;1.65;;;;;;;10.94;88.68;100745.47;4897166;29;20051;-73
2023/07/26 01:31:24;;;;;;;3.92;1.60;;;;;;;10.94;88.22;100745.47;4911500;29;20135;-73
2023/07/26 01:33:52;;;;;;;3.80;1.98;;;;;;;10.92;88.87;100736.91;4898626;29;20116;-73
2023/07/26 01:36:25;;;;;;;6.65;1.83;;;;;;;10.92;88.18;100741.47;4895811;29;20123;-75
2023/07/26 01:38:53;;;;;;;4.35;2.33;;;;;;;10.92;88.37;100741.47;4892467;29;20096;-74
2023/07/26 01:41:19;;;;;;;4.65;1.65;;;;;;;10.92;88.42;100742.25;4896505;29;20029;-75
2023/07/26 01:43:45;;;;;;;5.50;2.10;;;;;;;10.92;88.59;100741.47;4896970;29;20036;-72
2023/07/26 01:46:12;;;;;;;7.03;2.30;;;;;;;10.88;88.87;100751.09;4907467;29;20679;-75
2023/07/26 01:48:38;;;;;;;4.38;2.10;;;;;;;10.89;88.62;100748.16;4909870;29;20028;-75
2023/07/26 01:51:05;;;;;;;2.72;1.77;;;;;;;10.90;88.60;100748.94;4888851;29;20124;-74
2023/07/26 01:53:31;;;;;;;;;;;;;;;10.88;89.14;100751.09;4914745;29;20500;-74
2023/07/26 01:55:57;;;;;;;4.95;2.50;;;;;;;10.83;89.12;100754.59;4908935;29;19920;-75
2023/07/26 01:58:23;;;;;;;4.90;1.83;;;;;;;10.84;89.12;100750.88;4888960;29;20040;-74
2023/07/26 02:00:49;;;;;;;3.70;2.05;;;;;;;10.88;89.29;100751.09;4863051;29;20028;-74
2023/07/26 02:03:14;;;;;;;3.72;1.73;;;;;;;10.88;89.17;100743.88;4892326;29;20495;-74
2023/07/26 02:05:44;;;;;;;5.28;1.90;;;;;;;10.90;89.62;100743.59;4909320;29;20044;-73
2023/07/26 02:08:11;;;;;;;6.53;2.20;;;;;;;10.93;89.88;100749.22;4894045;29;20025;-74
2023/07/26 02:10:38;;;;;;;;;;;;;;;10.96;90.76;100747.88;4874728;29;20104;-72
2023/07/26 02:13:03;;;;;;;5.78;2.05;;;;;;;10.96;90.63;100753.22;4874782;29;20005;-73
2023/07/26 02:15:29;;;;;;;5.63;1.77;;;;;;;11.02;90.53;100754.81;4874453;29;20052;-73
2023/07/26 02:17:54;;;;;;;3.88;2.38;;;;;;;11.04;90.07;100755.38;4889264;29;20055;-75
2023/07/26 02:20:20;;;;;;;3.15;1.95;;;;;;;11.07;90.38;100754.81;4900757;29;20119;-74
2023/07/26 02:22:46;;;;;;;5.25;2.10;;;;;;;11.08;90.28;100753.75;4892024;29;20051;-73
2023/07/26 02:25:11;;;;;;;3.63;1.95;;;;;;;11.09;90.75;100755.34;4879517;29;20536;-73
2023/07/26 02:27:37;;;;;;;3.58;1.90;;;;;;;11.13;90.55;100751.06;4886384;29;20120;-74
2023/07/26 02:30:03;;;;;;;3.30;2.00;;;;;;;11.15;90.42;100762.28;4891075;29;20059;-73
2023/07/26 02:32:29;;;;;;;4.60;1.83;;;;;;;11.19;90.28;100758.00;4880063;29;20035;-74
2023/07/26 02:34:55;;;;;;;4.95;2.22;;;;;;;11.19;90.04;100758.00;4883537;29;20036;-76
2023/07/26 02:37:21;;;;;;;4.45;1.83;;;;;;;11.23;89.93;100744.03;4868894;29;20077;-73
2023/07/26 02:39:48;;;;;;;3.78;2.20;;;;;;;11.22;90.02;100751.28;4890345;29;20630;-75
2023/07/26 02:42:14;;;;;;;4.43;2.00;;;;;;;11.21;89.72;100747.81;4908969;29;20033;-75
2023/07/26 02:44:40;;;;;;;3.45;2.00;;;;;;;11.20;89.76;100748.09;4876952;29;20056;-75
2023/07/26 02:47:07;;;;;;;4.88;1.90;;;;;;;11.19;89.58;100744.59;4888438;29;20229;-75
2023/07/26 02:49:33;;;;;;;6.15;1.83;;;;;;;11.18;89.55;100751.03;4877347;29;20514;-73
2023/07/26 02:51:58;;;;;;;3.55;1.98;;;;;;;11.17;89.51;100744.06;4890394;29;20092;-73
2023/07/26 02:54:24;;;;;;;4.82;1.73;;;;;;;11.17;90.10;100754.78;4877596;29;20052;-74
2023/07/26 02:56:50;;;;;;;4.07;2.00;;;;;;;11.15;89.78;100750.78;4889036;29;20028;-73
2023/07/26 03:02:14;;;;;;;4.00;1.50;;;;;;;11.10;90.04;100756.94;4893932;29;20148;-87
2023/07/26 03:04:43;;;;;;;4.20;1.33;;;;;;;11.08;89.61;100751.06;4866030;29;20036;-87
2023/07/26 03:09:56;;;;;;;4.55;1.50;;;;;;;11.07;90.22;100749.47;4946166;29;20036;-88
2023/07/26 03:12:24;;;;;;;4.68;1.65;;;;;;;11.03;90.12;100745.72;4937887;29;20046;-87
2023/07/26 03:14:52;;;;;;;4.43;1.67;;;;;;;11.06;90.19;100747.84;4989557;23;20135;-87
2023/07/26 03:17:18;;;;;;;6.78;1.90;;;;;;;11.00;90.23;100743.59;4912259;29;20041;-86
2023/07/26 03:19:46;;;;;;;;;;;;;;;11.05;90.44;100756.19;4918137;29;20040;-88
2023/07/26 03:22:14;;;;;;;4.00;1.42;;;;;;;10.97;90.30;100738.75;4900283;29;20250;-86
2023/07/26 03:24:41;;;;;;;3.92;1.42;;;;;;;10.94;90.09;100745.47;4887026;29;20050;-85
2023/07/26 03:27:08;;;;;;;;;;;;;;;10.99;90.18;100755.38;4872847;29;20053;-88
2023/07/26 03:29:34;;;;;;;4.53;1.90;;;;;;;10.98;89.94;100752.97;4917602;29;19927;-87
2023/07/26 03:32:02;;;;;;;3.05;1.42;;;;;;;10.96;90.14;100755.09;4888218;29;20040;-86
2023/07/26 03:34:28;;;;;;;;;;;;;;;11.01;90.09;100761.25;4885465;29;20067;-86
2023/07/26 03:36:56;;;;;;;2.70;1.20;;;;;;;10.99;89.93;100765.31;4895098;29;19951;-87
2023/07/26 03:39:23;;;;;;;4.32;1.60;;;;;;;10.98;90.30;100769.06;4880376;29;20025;-87
2023/07/26 03:41:50;;;;;;;5.45;1.73;;;;;;;10.98;90.76;100761.81;4899012;29;20462;-87
2023/07/26 03:44:16;;;;;;;;;;;;;;;11.00;90.69;100770.38;4898233;29;20052;-87
2023/07/26 03:46:42;;;;;;;5.72;1.40;;;;;;;10.99;90.38;100774.13;4876615;29;19916;-87
2023/07/26 03:49:10;;;;;;;6.10;1.85;;;;;;;10.98;90.06;100767.19;4890789;29;20114;-86
2023/07/26 03:51:37;;;;;;;6.97;2.25;;;;;;;11.01;90.75;100776.53;4886621;29;20029;-88
2023/07/26 03:54:04;;;;;;;4.18;1.73;;;;;;;11.05;90.65;100775.75;4886034;29;20044;-84
2023/07/26 03:56:36;;;;;;;4.50;1.70;;;;;;;11.06;91.00;100769.28;4894215;29;20037;-87
2023/07/26 03:59:02;;;;;;;12.02;2.10;;;;;;;11.12;91.19;100781.63;4895549;29;20345;-86
2023/07/26 04:01:31;;;;;;;4.50;1.77;;;;;;;11.13;91.00;100777.84;4898493;29;20051;-87
2023/07/26 04:03:58;;;;;;;4.53;2.03;;;;;;;11.17;91.10;100773.53;4873160;29;20025;-82
2023/07/26 04:06:30;;;;;;;2.90;1.52;;;;;;;11.24;91.35;100775.13;4898865;29;20048;-87
2023/07/26 04:08:59;;;;;;;4.68;1.80;;;;;;;11.28;91.27;100776.19;4907638;29;20057;-87
2023/07/26 04:11:25;;;;;;;5.10;1.67;;;;;;;11.36;91.20;100794.41;4899038;29;20044;-87
2023/07/26 04:13:51;;;;;;;4.55;1.60;;;;;;;11.35;91.17;100787.44;4888055;29;20028;-87
2023/07/26 04:16:20;;;;;;;4.82;1.67;;;;;;;11.35;90.86;100795.47;4882415;29;20069;-87
2023/07/26 04:18:46;;;;;;;4.18;1.73;;;;;;;11.36;90.90;100791.72;4883091;29;20093;-86
2023/07/26 04:21:14;;;;;;;4.70;1.60;;;;;;;11.36;91.00;100797.09;4882433;29;20072;-87
2023/07/26 04:23:44;;;;;;;4.93;2.03;;;;;;;11.39;90.67;100789.31;4877523;29;20036;-86
2023/07/26 04:26:19;;;;;;;8.38;1.48;;;;;;;11.52;90.87;100798.66;4880025;29;20076;-88
2023/07/26 04:28:46;;;;;;;5.85;2.08;;;;;;;11.57;91.26;100795.94;4895433;29;20033;-88
2023/07/26 04:31:14;;;;;;;3.90;1.83;;;;;;;11.59;89.94;100788.44;4863201;29;20081;-89
2023/07/26 04:33:41;;;;;;;6.13;1.80;;;;;;;11.69;90.42;100807.16;4898879;29;20039;-88
2023/07/26 04:36:09;;;;;;;3.33;1.60;;;;;;;11.67;90.84;100795.09;4887749;29;20082;-89
2023/07/26 04:38:37;;;;;;;6.25;1.40;;;;;;;11.68;91.13;100792.13;5146584;23;20060;-88
2023/07/26 04:41:04;;;;;;;4.78;1.60;;;;;;;11.72;90.29;100792.41;4912014;29;20039;-89
2023/07/26 04:43:33;;;;;;;3.20;1.23;;;;;;;11.81;90.78;100803.38;4914406;29;20092;-88
2023/07/26 04:45:59;;;;;;;5.93;1.90;;;;;;;11.81;89.93;100785.41;4927240;29;20562;-87
2023/07/26 04:48:26;;;;;;;4.35;1.80;;;;;;;11.89;90.70;100786.69;4918685;29;20044;-88
2023/07/26 06:04:02;;;;;;;5.63;2.42;;;;;;;13.59;85.13;100851.09;5730193;23;20085;31
2023/07/26 06:06:28;;;;;;;3.67;1.60;;;;;;;13.60;84.93;100847.31;4889818;29;20048;-86
2023/07/26 06:08:55;;;;;;;7.40;1.60;;;;;;;13.64;86.20;100844.88;4907406;29;20037;-86
2023/07/26 06:39:33;;;;;;;6.00;2.95;;;;;;;14.21;83.41;100875.38;5988295;23;20022;-81
2023/07/26 07:17:38;;;;;;;4.30;2.10;;;;;;;15.53;78.06;100865.16;5502369;23;20036;-81
2023/07/26 08:26:06;;;;;;;3.20;1.48;;;;;;;17.29;68.48;100872.56;5584952;23;19922;-75
2023/07/26 08:31:27;;;;;;;5.25;1.98;;;;;;;17.62;67.35;100864.91;5457598;23;20031;-72
2023/07/26 08:33:53;;;;;;;;;;;;;;;17.50;66.69;100876.31;5769860;23;21718;-74
2023/07/26 08:45:07;;;;;;;5.40;2.00;;;;;;;17.05;71.57;100873.69;5923614;23;20788;-75
2023/07/26 08:50:30;;;;;;;3.13;1.52;;;;;;;16.85;71.96;100882.31;5853338;23;20044;-72
2023/07/26 09:01:26;;;;;;;4.25;1.60;;;;;;;16.28;70.49;100890.13;4918368;29;20048;-76
2023/07/26 09:03:52;;;;;;;4.20;1.52;;;;;;;16.14;68.71;100882.03;4920647;29;20131;-75
2023/07/26 09:06:18;;;;;;;;;;;;;;;16.35;69.48;100885.09;4904177;29;20032;-76
2023/07/26 09:08:44;;;;;;;4.60;1.63;;;;;;;16.32;72.94;100885.69;4905768;29;19923;-75
2023/07/26 09:11:20;;;;;;;;;;;;;;;16.45;71.19;100879.44;4906871;29;20097;-75
2023/07/26 09:13:53;;;;;;;5.05;1.67;;;;;;;16.59;71.24;100880.19;4905992;29;19919;-74
2023/07/26 09:16:20;;;;;;;3.78;1.65;;;;;;;16.85;64.66;100868.78;4922791;29;20486;-76
2023/07/26 09:18:59;;;;;;;4.20;1.50;;;;;;;17.25;67.31;100875.06;4910528;29;20045;-74
2023/07/26 09:21:31;;;;;;;2.88;1.40;;;;;;;17.59;66.76;100873.63;4897476;29;20398;-76
2023/07/26 09:23:58;;;;;;;4.57;1.23;;;;;;;17.70;64.49;100886.59;4909594;29;20032;-75
2023/07/26 09:26:37;;;;;;;3.25;1.58;;;;;;;17.90;63.47;100868.97;4889236;29;20036;-75
2023/07/26 09:29:08;;;;;;;1.63;0.80;;;;;;;18.00;63.78;100876.81;4911904;29;20048;-75
2023/07/26 09:31:35;;;;;;;2.25;1.20;;;;;;;18.22;63.42;100862.34;4907850;29;20099;-76
2023/07/26 09:34:04;;;;;;;2.72;1.20;;;;;;;18.37;63.49;100881.97;4895997;29;20474;-75
2023/07/26 09:36:51;;;;;;;3.25;1.50;;;;;;;18.56;64.38;100874.31;4905085;29;20033;-76
2023/07/26 09:39:19;;;;;;;4.03;1.98;;;;;;;18.72;58.25;100878.16;4892735;29;20036;-74
2023/07/26 09:41:45;;;;;;;2.25;1.23;;;;;;;18.91;58.73;100871.59;4912824;29;20040;-73
2023/07/26 09:44:19;;;;;;;1.92;1.40;;;;;;;18.86;56.06;100871.75;4892260;29;20032;-74
2023/07/26 09:46:49;;;;;;;2.45;1.00;;;;;;;18.65;55.43;100866.97;4910700;29;20074;-75
2023/07/26 09:49:16;;;;;;;3.45;1.63;;;;;;;18.70;57.24;100868.75;4910602;29;20036;-74
2023/07/26 09:51:42;;;;;;;1.70;0.85;;;;;;;18.84;55.88;100879.44;4908423;29;20510;-75
2023/07/26 09:54:10;;;;;;;1.85;1.10;;;;;;;18.95;56.00;100872.53;4894659;29;20036;-76
2023/07/26 09:56:38;;;;;;;2.15;1.00;;;;;;;19.09;56.63;100875.84;4893520;29;20116;-76
2023/07/26 09:59:09;;;;;;;1.90;1.02;;;;;;;18.94;57.13;100869.00;4909694;29;20043;-75
2023/07/26 10:01:44;;;;;;;1.95;1.27;;;;;;;18.75;58.58;100872.06;4911236;29;20498;-77
2023/07/26 10:04:12;;;;;;;3.15;1.38;;;;;;;18.63;59.46;100874.63;4878127;29;20055;-74
2023/07/26 10:06:39;;;;;;;2.33;1.00;;;;;;;18.58;57.77;100866.66;4892675;29;20032;-74
2023/07/26 10:09:05;;;;;;;1.77;0.93;;;;;;;18.38;62.57;100878.13;4891132;29;20040;-75
2023/07/26 10:11:31;;;;;;;;;;;;;;;18.37;59.94;100871.13;4892223;29;20778;-77
2023/07/26 10:13:58;;;;;;;2.15;1.00;;;;;;;18.43;56.73;100865.22;4925149;29;19934;-74
2023/07/26 10:16:25;;;;;;;3.83;1.52;;;;;;;18.39;58.98;100871.59;4904421;29;20107;-74
2023/07/26 10:18:53;;;;;;;1.60;0.93;;;;;;;18.39;58.65;100874.31;4917383;29;20032;-75
2023/07/26 10:21:20;;;;;;;2.38;1.58;;;;;;;18.52;61.14;100868.72;4906747;29;20024;-74
2023/07/26 10:23:48;;;;;;;4.30;1.27;;;;;;;18.62;62.70;100866.78;4914497;29;20032;-73
2023/07/26 10:26:15;;;;;;;2.63;1.35;;;;;;;18.54;60.53;100865.69;4907187;29;20067;-77
2023/07/26 10:28:42;;;;;;;2.58;1.30;;;;;;;18.41;60.01;100859.28;4905832;29;20085;-76
2023/07/26 10:31:08;;;;;;;4.97;1.27;;;;;;;18.25;58.45;100864.41;4900418;29;20114;-75
2023/07/26 10:33:44;;;;;;;2.78;1.10;;;;;;;18.51;57.60;100860.91;4923398;29;20039;-75
2023/07/26 10:36:12;;;;;;;2.85;1.52;;;;;;;18.69;60.23;100856.28;4907058;29;20040;-76
2023/07/26 10:38:39;;;;;;;2.90;1.10;;;;;;;18.53;55.02;100858.66;4927661;29;20610;-75
2023/07/26 10:41:20;;;;;;;3.28;1.35;;;;;;;18.20;58.07;100867.25;4893453;29;20036;-75
2023/07/26 10:43:49;;;;;;;2.05;1.10;;;;;;;18.22;58.42;100861.53;4908136;29;20027;-75
2023/07/26 10:46:15;;;;;;;3.13;1.75;;;;;;;18.39;57.71;100856.13;4889441;29;20035;-75
2023/07/26 10:48:42;;;;;;;2.63;1.40;;;;;;;18.79;58.77;100859.47;4892692;29;20032;-74
2023/07/26 10:51:23;;;;;;;2.85;1.58;;;;;;;19.13;55.20;100855.09;4907193;29;20043;-74
2023/07/26 10:53:49;;;;;;;3.70;1.30;;;;;;;19.57;55.99;100852.97;4908538;29;20095;-75
2023/07/26 10:56:33;;;;;;;2.58;1.40;;;;;;;19.72;56.14;100849.75;4903205;29;20051;-76
2023/07/26 10:59:05;;;;;;;1.83;1.10;;;;;;;19.60;59.62;100849.66;4906495;29;20028;-77
2023/07/26 11:01:40;;;;;;;3.92;1.92;;;;;;;19.34;56.20;100855.16;4905174;29;20852;-76
2023/07/26 11:04:20;;;;;;;2.20;1.17;;;;;;;19.18;59.35;100854.91;4905139;29;20044;-74
2023/07/26 11:07:03;;;;;;;2.03;1.20;;;;;;;18.96;61.79;100860.53;4905262;29;20520;-75
2023/07/26 11:09:33;;;;;;;;;;;;;;;18.78;61.05;100860.59;4884790;29;20107;-75
2023/07/26 11:12:14;;;;;;;2.40;1.30;;;;;;;18.66;57.98;100852.31;4891663;29;19930;-75
2023/07/26 11:14:41;;;;;;;2.72;1.23;;;;;;;18.80;57.91;100852.91;4905012;29;20071;-75
2023/07/26 11:17:14;;;;;;;2.63;1.10;;;;;;;19.16;59.39;100854.41;4901808;29;20043;-75
2023/07/26 11:19:50;;;;;;;2.80;1.50;;;;;;;19.43;56.66;100841.53;4904672;29;20036;-74
2023/07/26 11:22:19;;;;;;;3.78;1.63;;;;;;;19.72;56.36;100849.75;4901690;29;20043;-75
2023/07/26 11:24:46;;;;;;;2.53;1.30;;;;;;;19.70;53.72;100843.81;4906012;29;20036;-74
2023/07/26 11:27:13;;;;;;;2.70;1.30;;;;;;;19.67;56.74;100858.09;4908275;29;20043;-76
2023/07/26 11:29:39;;;;;;;2.63;1.50;;;;;;;19.48;58.47;100850.31;4889907;29;20027;-75
2023/07/26 11:32:05;;;;;;;4.03;1.65;;;;;;;19.10;55.24;100853.00;4876195;29;20044;-75
2023/07/26 11:34:30;;;;;;;4.45;2.10;;;;;;;19.03;61.33;100858.13;4906374;29;20035;-75
2023/07/26 11:37:07;;;;;;;2.65;1.40;;;;;;;19.24;54.66;100856.34;4906372;29;20032;-76
2023/07/26 11:39:34;;;;;;;2.75;1.77;;;;;;;19.51;55.88;100848.84;4904856;29;20032;-77
2023/07/26 11:42:01;;;;;;;2.97;1.40;;;;;;;19.77;55.95;100844.09;4892640;29;20413;-76
2023/07/26 11:44:27;;;;;;;3.45;1.50;;;;;;;20.21;55.86;100849.28;4889129;29;20111;-75
2023/07/26 11:46:53;;;;;;;2.97;1.20;;;;;;;20.45;56.22;100849.41;4909440;29;20119;-75
2023/07/26 11:49:23;;;;;;;3.53;2.05;;;;;;;19.88;51.43;100856.19;4884168;29;20056;-75
2023/07/26 11:51:51;;;;;;;3.45;1.25;;;;;;;19.78;55.70;100858.50;4908024;29;20072;-77
2023/07/26 11:54:18;;;;;;;2.90;1.50;;;;;;;20.02;57.79;100852.44;4905368;29;20032;-75
2023/07/26 11:56:45;;;;;;;3.88;1.50;;;;;;;20.21;54.91;100857.44;4907229;29;20080;-78
2023/07/26 11:59:12;;;;;;;3.05;1.60;;;;;;;19.88;50.71;100853.47;4874922;29;20044;-76
2023/07/26 12:01:39;;;;;;;2.85;1.67;;;;;;;19.78;51.94;100853.88;4905649;29;20031;-76
2023/07/26 12:04:23;;;;;;;2.58;1.20;;;;;;;19.68;53.22;100854.25;4894074;29;20040;-76
2023/07/26 12:06:49;;;;;;;3.63;1.30;;;;;;;19.51;54.53;100855.09;4874571;29;20040;-74
2023/07/26 12:09:15;;;;;;;3.22;1.30;;;;;;;19.36;53.52;100859.13;4903530;29;20035;-73
2023/07/26 12:11:47;;;;;;;5.50;1.75;;;;;;;19.09;56.81;100867.69;4905815;29;20058;-72
2023/07/26 12:14:15;;;;;;;3.90;1.48;;;;;;;19.00;56.51;100861.50;4888461;29;20064;-74
2023/07/26 12:16:47;;;;;;;4.97;1.50;;;;;;;18.75;58.11;100877.50;4902671;29;20044;-74
2023/07/26 12:19:12;;;;;;;;;;;;;;;18.45;59.78;100878.47;4905776;29;20087;-75
2023/07/26 12:21:38;;;;;;;3.45;1.50;;;;;;;18.42;63.74;100889.91;4907563;29;19924;-71
2023/07/26 12:24:04;;;;;;;;;;;;;;;18.60;65.98;100893.44;4905133;29;20043;-74
2023/07/26 12:26:33;;;;;;;7.70;2.10;;;;;;;18.93;66.29;100894.56;4906482;29;19971;-76
2023/07/26 12:29:06;;;;;;;2.78;1.63;;;;;;;18.69;66.74;100888.84;4921412;29;20128;-75
2023/07/26 12:31:34;;;;;;;2.55;1.88;;;;;;;18.21;63.54;100895.16;4895253;29;20040;-72
2023/07/26 12:34:08;;;;;;;2.72;1.40;;;;;;;17.98;64.81;100903.41;4906940;29;20039;-74
2023/07/26 12:36:37;;;;;;;3.28;1.90;;;;;;;17.85;64.01;100925.22;4906263;29;20127;-74
2023/07/26 12:39:07;;;;;;;3.03;1.58;;;;;;;17.65;66.18;100918.41;4889706;29;20450;-74
2023/07/26 12:41:34;;;;;;;3.63;2.20;;;;;;;17.58;70.21;100927.00;4906602;29;20067;-74
2023/07/26 12:44:05;;;;;;;3.38;1.60;;;;;;;17.40;69.92;100936.94;4925040;29;20036;-76
2023/07/26 12:46:30;;;;;;;3.38;1.92;;;;;;;17.45;72.92;100925.19;4923258;29;20071;-75
2023/07/26 12:48:56;;;;;;;3.00;1.42;;;;;;;17.33;73.47;100930.38;4890270;29;20064;-75
2023/07/26 12:51:23;;;;;;;3.30;1.65;;;;;;;17.25;74.39;100928.41;4909959;29;20127;-75
2023/07/26 12:53:49;;;;;;;3.38;1.83;;;;;;;17.14;73.22;100925.97;4908379;29;20040;-75
2023/07/26 12:56:14;;;;;;;2.83;1.83;;;;;;;16.97;73.77;100939.38;4907360;29;20517;-73
2023/07/26 12:58:40;;;;;;;;;;;;;;;16.84;73.33;100929.41;4906703;29;20115;-75
2023/07/26 13:01:06;;;;;;;4.55;1.55;;;;;;;16.84;71.51;100929.41;4907903;29;20385;-75
2023/07/26 13:03:31;;;;;;;;;;;;;;;16.80;71.34;100931.13;4884591;29;20044;-74
2023/07/26 13:05:58;;;;;;;3.80;1.83;;;;;;;16.81;72.74;100930.03;4894605;29;19924;-76
2023/07/26 13:08:24;;;;;;;4.30;2.03;;;;;;;16.78;69.37;100930.63;4906391;29;20115;-77
2023/07/26 13:10:50;;;;;;;2.80;1.45;;;;;;;16.78;69.91;100930.63;4908793;29;20088;-74
2023/07/26 13:13:16;;;;;;;;;;;;;;;16.73;69.59;100941.56;4910128;29;20036;-74
2023/07/26 13:15:41;;;;;;;2.33;1.27;;;;;;;16.74;69.61;100940.47;4907311;29;20053;-73
2023/07/26 13:18:07;;;;;;;2.15;1.17;;;;;;;16.98;68.64;100943.69;4906154;29;20029;-74
2023/07/26 13:20:32;;;;;;;2.55;1.58;;;;;;;17.11;71.06;100945.53;4908241;29;20762;-74
2023/07/26 13:22:58;;;;;;;2.00;1.02;;;;;;;17.12;70.53;100941.69;4907091;29;20055;-75
2023/07/26 13:25:23;;;;;;;;;;;;;;;17.17;67.45;100938.09;4908892;29;20036;-74
2023/07/26 13:27:49;;;;;;;2.88;1.23;;;;;;;17.33;66.56;100935.78;4910057;29;19962;-75
2023/07/26 13:30:15;;;;;;;;;;;;;;;17.40;68.31;100934.22;4908272;29;20036;-75
2023/07/26 13:32:40;;;;;;;2.80;1.70;;;;;;;17.52;67.71;100932.84;4907602;29;19921;-74
2023/07/26 13:35:07;;;;;;;2.20;1.40;;;;;;;17.47;67.10;100937.28;4910465;29;20063;-73
2023/07/26 13:37:34;;;;;;;2.40;1.77;;;;;;;17.54;65.51;100928.72;4909034;29;20031;-74
2023/07/26 13:40:01;;;;;;;3.30;1.50;;;;;;;17.51;65.53;100932.06;4924070;29;20522;-74
2023/07/26 13:42:27;;;;;;;3.60;1.50;;;;;;;17.77;66.56;100920.56;4907138;29;20880;-73
2023/07/26 13:44:53;;;;;;;;;;;;;;;17.98;64.66;100924.31;4893604;29;20068;-74
2023/07/26 13:47:18;;;;;;;5.35;1.70;;;;;;;18.01;66.55;100919.03;4890214;29;19962;-74
2023/07/26 13:49:44;;;;;;;3.17;1.50;;;;;;;18.02;65.99;100925.28;4905506;29;20060;-73
2023/07/26 13:52:10;;;;;;;3.42;1.40;;;;;;;18.19;66.67;100916.38;4885755;29;20067;-75
2023/07/26 13:54:37;;;;;;;2.22;1.63;;;;;;;18.26;62.48;100922.94;4907851;29;20043;-73
2023/07/26 13:57:02;;;;;;;2.22;1.40;;;;;;;18.26;62.48;100920.22;4892827;29;20039;-75
2023/07/26 13:59:28;;;;;;;2.33;1.60;;;;;;;18.34;65.18;100915.91;4907711;29;20061;-74
2023/07/26 14:01:54;;;;;;;4.70;1.15;;;;;;;18.34;64.14;100918.63;4905103;29;20695;-72
2023/07/26 14:04:19;;;;;;;2.10;1.50;;;;;;;18.50;62.99;100922.50;4888665;29;20035;-73
2023/07/26 14:06:45;;;;;;;;;;;;;;;18.40;59.42;100919.28;4889947;29;20406;-74
2023/07/26 14:09:11;;;;;;;2.20;1.70;;;;;;;18.42;59.74;100923.25;4905678;29;19983;-74
2023/07/26 14:11:36;;;;;;;;;;;;;;;18.53;59.36;100934.59;4908817;29;20632;-72
2023/07/26 14:14:05;;;;;;;2.72;1.60;;;;;;;18.70;59.87;100934.66;4908230;29;20005;-72
2023/07/26 14:16:30;;;;;;;3.08;2.03;;;;;;;18.87;60.95;100927.63;4904370;29;20024;-74
2023/07/26 14:18:56;;;;;;;2.47;1.23;;;;;;;18.93;58.98;100931.75;4890484;29;20383;-72
2023/07/26 14:21:21;;;;;;;2.67;1.65;;;;;;;18.91;57.03;100931.28;4872791;29;20040;-73
2023/07/26 14:23:47;;;;;;;2.75;1.40;;;;;;;18.85;62.25;100940.72;4904002;29;20119;-72
2023/07/26 14:26:13;;;;;;;2.90;1.90;;;;;;;18.76;57.68;100938.81;4906697;29;20467;-74
2023/07/26 14:28:39;;;;;;;4.72;2.05;;;;;;;18.84;60.69;100931.78;4906836;29;20797;-75
2023/07/26 14:31:06;;;;;;;3.45;1.40;;;;;;;18.88;63.98;100940.06;4878017;29;20048;-72
2023/07/26 14:33:31;;;;;;;2.78;1.77;;;;;;;18.80;60.93;100936.22;4906158;29;20063;-75
2023/07/26 14:35:57;;;;;;;3.38;1.83;;;;;;;18.73;60.08;100946.78;4909299;29;20506;-73
2023/07/26 14:38:23;;;;;;;2.72;1.42;;;;;;;18.76;59.98;100941.50;4890988;29;20120;-74
2023/07/26 14:40:49;;;;;;;;;;;;;;;18.66;59.92;100949.97;4906651;29;20510;-75
2023/07/26 14:43:14;;;;;;;2.95;1.70;;;;;;;18.41;61.42;100937.13;4920030;29;19925;-74
2023/07/26 14:45:40;;;;;;;;;;;;;;;18.26;60.06;100950.03;4891470;29;20406;-75
2023/07/26 14:48:06;;;;;;;3.33;1.60;;;;;;;18.09;61.17;100952.72;4917316;29;19982;-74
2023/07/26 14:50:31;;;;;;;;;;;;;;;18.04;61.21;100950.16;4894151;29;20048;-75
2023/07/26 14:52:57;;;;;;;5.97;1.70;;;;;;;17.87;63.94;100960.91;4905020;29;19927;-75
2023/07/26 14:55:23;;;;;;;2.60;1.40;;;;;;;17.67;61.89;100960.31;4907359;29;20036;-73
2023/07/26 14:57:49;;;;;;;;;;;;;;;17.26;62.55;100968.69;4904849;29;20046;-72
2023/07/26 15:00:23;;;;;;;2.35;1.30;;;;;;;17.23;65.80;100965.81;4919139;23;20009;-77
2023/07/26 15:02:51;;;;;;;1.80;1.08;;;;;;;17.18;67.53;100974.84;4908131;29;20035;-78
2023/07/26 15:05:22;;;;;;;2.00;1.38;;;;;;;17.10;67.54;100962.06;4909767;29;20056;-79
2023/07/26 15:08:08;;;;;;;2.70;1.30;;;;;;;16.98;66.11;100968.03;4910039;29;20643;-78
2023/07/26 15:10:39;;;;;;;2.38;1.60;;;;;;;16.95;67.19;100968.66;4908325;29;20106;-78
2023/07/26 15:13:17;;;;;;;1.65;1.00;;;;;;;16.99;68.40;100966.13;4913047;29;20068;-77
2023/07/26 15:15:55;;;;;;;2.40;1.25;;;;;;;16.97;69.06;100955.59;4914412;29;20032;-77
2023/07/26 15:18:21;;;;;;;;;;;;;;;16.97;72.50;100965.63;4904331;29;20043;-77
2023/07/26 15:20:46;;;;;;;2.95;1.50;;;;;;;16.91;70.94;100963.03;4894935;29;19915;-78
2023/07/26 15:23:15;;;;;;;3.33;1.42;;;;;;;16.82;72.08;100962.19;4894124;29;20051;-76
2023/07/26 15:25:41;;;;;;;;;;;;;;;16.73;69.07;100974.00;4877400;29;20040;-75